createdAt,value
2017-10-14T00:01:34.828Z,61.00
2017-10-14T00:04:03.104Z,60.60
2017-10-14T00:06:32.088Z,60.30
2017-10-14T00:09:00.412Z,60.30
2017-10-14T00:11:28.684Z,61.30
2017-10-14T00:13:56.961Z,62.10
2017-10-14T00:16:25.237Z,61.30
2017-10-14T00:18:53.533Z,60.80
2017-10-14T00:21:21.820Z,60.30
2017-10-14T00:23:50.083Z,60.00
2017-10-14T00:26:18.786Z,59.40
2017-10-14T00:28:47.079Z,59.40
2017-10-14T00:31:15.336Z,59.10
2017-10-14T00:33:43.638Z,58.90
2017-10-14T00:36:11.893Z,58.60
2017-10-14T00:38:40.190Z,58.50
2017-10-14T00:41:08.449Z,59.40
2017-10-14T00:43:36.718Z,59.20
2017-10-14T00:46:04.997Z,59.50
2017-10-14T00:48:33.294Z,60.60
2017-10-14T00:51:01.567Z,60.40
2017-10-14T00:53:30.077Z,60.10
2017-10-14T00:55:58.452Z,60.60
2017-10-14T00:58:27.432Z,59.20
2017-10-14T01:00:56.132Z,59.20
2017-10-14T01:03:24.419Z,59.20
2017-10-14T01:05:52.688Z,59.50
2017-10-14T01:08:21.005Z,59.40
2017-10-14T01:10:49.292Z,59.10
2017-10-14T01:13:17.588Z,59.50
2017-10-14T01:15:45.884Z,59.50
2017-10-14T01:18:14.614Z,59.10
2017-10-14T01:20:43.629Z,60.00
2017-10-14T01:23:11.940Z,60.60
2017-10-14T01:25:40.224Z,61.70
2017-10-14T01:28:08.534Z,62.40
2017-10-14T01:30:37.124Z,61.30
2017-10-14T01:33:05.455Z,61.30
2017-10-14T01:35:33.768Z,60.60
2017-10-14T01:38:02.025Z,61.20
2017-10-14T01:40:30.347Z,62.10
2017-10-14T01:42:58.843Z,60.60
2017-10-14T01:45:27.188Z,62.40
2017-10-14T01:47:55.698Z,61.20
2017-10-14T01:50:23.994Z,63.10
2017-10-14T01:52:52.249Z,63.00
2017-10-14T01:55:20.521Z,62.60
2017-10-14T01:57:48.795Z,62.20
2017-10-14T02:00:17.050Z,61.90
2017-10-14T02:02:46.204Z,61.30
2017-10-14T02:05:14.900Z,61.30
2017-10-14T02:07:43.225Z,61.30
2017-10-14T02:10:11.500Z,61.20
2017-10-14T02:12:39.772Z,61.00
2017-10-14T02:15:08.333Z,60.40
2017-10-14T02:17:36.829Z,60.40
2017-10-14T02:20:05.211Z,60.60
2017-10-14T02:22:33.557Z,61.30
2017-10-14T02:25:02.091Z,60.40
2017-10-14T02:27:30.416Z,60.60
2017-10-14T02:29:58.693Z,60.60
2017-10-14T02:32:27.229Z,62.10
2017-10-14T02:34:55.504Z,63.10
2017-10-14T02:37:23.790Z,62.10
2017-10-14T02:39:52.445Z,64.20
2017-10-14T02:42:20.744Z,64.20
2017-10-14T02:44:49.410Z,63.50
2017-10-14T02:47:17.713Z,63.30
2017-10-14T02:49:46.040Z,63.50
2017-10-14T02:52:14.315Z,63.00
2017-10-14T02:54:42.600Z,65.10
2017-10-14T02:57:10.966Z,64.20
2017-10-14T02:59:39.228Z,64.20
2017-10-14T03:02:07.556Z,64.80
2017-10-14T03:04:35.832Z,64.20
2017-10-14T03:07:04.108Z,63.50
2017-10-14T03:09:33.259Z,63.10
2017-10-14T03:12:01.754Z,63.10
2017-10-14T03:14:30.113Z,63.70
2017-10-14T03:16:58.501Z,62.80
2017-10-14T03:19:26.777Z,62.80
2017-10-14T03:21:56.095Z,62.10
2017-10-14T03:24:32.030Z,64.00
2017-10-14T03:27:02.197Z,62.20
2017-10-14T03:29:30.920Z,61.90
2017-10-14T03:31:59.168Z,63.00
2017-10-14T03:34:27.423Z,61.00
2017-10-14T03:36:55.719Z,61.20
2017-10-14T03:39:23.968Z,61.20
2017-10-14T03:41:52.226Z,61.50
2017-10-14T03:44:20.505Z,62.10
2017-10-14T03:46:48.986Z,61.90
2017-10-14T03:49:17.243Z,60.60
2017-10-14T03:51:45.532Z,62.60
2017-10-14T03:54:13.813Z,63.90
2017-10-14T03:56:42.087Z,63.90
2017-10-14T03:59:11.186Z,64.20
2017-10-14T04:01:39.515Z,63.00
2017-10-14T04:04:07.769Z,63.30
2017-10-14T04:06:36.050Z,64.00
2017-10-14T04:09:04.342Z,64.20
2017-10-14T04:11:33.026Z,63.50
2017-10-14T04:14:01.269Z,63.30
2017-10-14T04:16:29.523Z,62.60
2017-10-14T04:18:58.005Z,62.40
2017-10-14T04:21:26.444Z,62.20
2017-10-14T04:23:54.950Z,63.50
2017-10-14T04:26:23.491Z,64.00
2017-10-14T04:28:51.759Z,63.00
2017-10-14T04:31:20.007Z,63.50
2017-10-14T04:33:48.293Z,62.60
2017-10-14T04:36:16.560Z,62.60
2017-10-14T04:38:44.841Z,64.40
2017-10-14T04:41:13.096Z,63.50
2017-10-14T04:43:41.374Z,62.60
2017-10-14T04:46:09.672Z,64.40
2017-10-14T04:48:38.329Z,63.30
2017-10-14T04:51:06.568Z,63.70
2017-10-14T04:53:34.856Z,62.80
2017-10-14T04:56:03.831Z,63.00
2017-10-14T04:58:32.104Z,63.00
2017-10-14T05:01:00.371Z,64.60
2017-10-14T05:03:28.644Z,64.60
2017-10-14T05:05:57.083Z,63.10
2017-10-14T05:08:25.333Z,64.20
2017-10-14T05:10:53.989Z,64.90
2017-10-14T05:13:22.474Z,64.90
2017-10-14T05:15:50.812Z,64.00
2017-10-14T05:18:19.060Z,66.00
2017-10-14T05:20:47.322Z,65.50
2017-10-14T05:23:15.584Z,64.60
2017-10-14T05:25:43.856Z,66.40
2017-10-14T05:28:13.089Z,65.10
2017-10-14T05:30:41.756Z,64.00
2017-10-14T05:33:10.509Z,64.00
2017-10-14T05:35:38.779Z,64.00
2017-10-14T05:38:07.067Z,63.90
2017-10-14T05:40:36.374Z,63.70
2017-10-14T05:43:04.648Z,63.70
2017-10-14T05:45:33.268Z,65.10
2017-10-14T05:48:01.963Z,64.40
2017-10-14T05:50:30.239Z,64.40
2017-10-14T05:52:58.518Z,64.00
2017-10-14T05:55:26.773Z,64.60
2017-10-14T05:57:55.420Z,65.50
2017-10-14T06:00:24.089Z,66.20
2017-10-14T06:02:52.351Z,66.20
2017-10-14T06:05:20.643Z,64.90
2017-10-14T06:07:48.980Z,64.90
2017-10-14T06:10:17.636Z,65.10
2017-10-14T06:12:45.899Z,65.10
2017-10-14T06:15:14.168Z,66.60
2017-10-14T06:17:42.420Z,65.50
2017-10-14T06:20:10.712Z,64.40
2017-10-14T06:22:38.975Z,63.70
2017-10-14T06:25:07.222Z,64.60
2017-10-14T06:27:35.505Z,66.20
2017-10-14T06:30:04.217Z,64.80
2017-10-14T06:32:32.521Z,64.80
2017-10-14T06:35:00.977Z,65.80
2017-10-14T06:37:29.237Z,66.70
2017-10-14T06:39:57.476Z,65.80
2017-10-14T06:42:25.752Z,67.10
2017-10-14T06:44:54.440Z,66.00
2017-10-14T06:47:22.700Z,66.00
2017-10-14T06:49:51.093Z,65.30
2017-10-14T06:52:19.730Z,64.40
2017-10-14T06:54:48.011Z,64.40
2017-10-14T06:57:17.429Z,66.40
2017-10-14T06:59:45.730Z,64.90
2017-10-14T07:02:13.971Z,64.60
2017-10-14T07:04:42.255Z,64.20
2017-10-14T07:07:10.533Z,64.80
2017-10-14T07:09:38.813Z,66.40
2017-10-14T07:12:07.086Z,66.00
2017-10-14T07:14:35.352Z,64.90
2017-10-14T07:17:03.663Z,65.80
2017-10-14T07:19:31.981Z,66.70
2017-10-14T07:22:00.261Z,65.50
2017-10-14T07:24:28.571Z,64.20
2017-10-14T07:26:56.833Z,65.30
2017-10-14T07:29:25.108Z,64.20
2017-10-14T07:31:53.398Z,63.70
2017-10-14T07:34:21.680Z,63.10
2017-10-14T07:36:50.071Z,63.50
2017-10-14T07:39:18.351Z,63.30
2017-10-14T07:41:46.604Z,62.80
2017-10-14T07:44:14.921Z,63.90
2017-10-14T07:46:43.179Z,63.10
2017-10-14T07:49:11.465Z,63.00
2017-10-14T07:51:40.900Z,63.10
2017-10-14T07:54:09.161Z,63.10
2017-10-14T07:56:37.522Z,64.80
2017-10-14T07:59:05.789Z,65.10
2017-10-14T08:01:34.269Z,65.80
2017-10-14T08:04:02.594Z,66.00
2017-10-14T08:06:30.868Z,66.20
2017-10-14T08:08:59.137Z,65.30
2017-10-14T08:11:27.618Z,64.90
2017-10-14T08:13:55.929Z,64.60
2017-10-14T08:16:24.205Z,63.90
2017-10-14T08:18:52.456Z,63.00
2017-10-14T08:21:20.717Z,63.00
2017-10-14T08:23:49.032Z,62.10
2017-10-14T08:26:17.334Z,61.50
2017-10-14T08:28:45.610Z,61.50
2017-10-14T08:31:13.926Z,60.60
2017-10-14T08:33:42.430Z,60.10
2017-10-14T08:36:10.688Z,59.80
2017-10-14T08:38:39.030Z,59.40
2017-10-14T08:41:07.330Z,59.20
2017-10-14T08:43:35.613Z,58.90
2017-10-14T08:46:04.094Z,58.60
2017-10-14T08:48:32.362Z,58.30
2017-10-14T08:51:00.731Z,58.20
2017-10-14T08:53:29.589Z,58.00
2017-10-14T08:55:57.841Z,58.20
2017-10-14T08:58:26.097Z,57.90
2017-10-14T09:00:54.345Z,57.90
2017-10-14T09:03:22.837Z,58.20
2017-10-14T09:05:51.388Z,58.00
2017-10-14T09:08:19.643Z,58.00
2017-10-14T09:10:47.932Z,58.50
2017-10-14T09:13:17.049Z,58.90
2017-10-14T09:15:45.307Z,59.50
2017-10-14T09:18:13.590Z,60.10
2017-10-14T09:20:42.184Z,61.00
2017-10-14T09:23:10.456Z,61.30
2017-10-14T09:25:38.721Z,61.00
2017-10-14T09:28:07.593Z,61.20
2017-10-14T09:30:35.956Z,60.40
2017-10-14T09:33:04.251Z,59.70
2017-10-14T09:35:32.518Z,59.40
2017-10-14T09:38:00.889Z,59.50
2017-10-14T09:40:30.067Z,60.00
2017-10-14T09:42:58.325Z,61.00
2017-10-14T09:45:27.006Z,62.10
2017-10-14T09:47:55.698Z,62.80
2017-10-14T09:50:24.349Z,64.40
2017-10-14T09:52:52.832Z,64.40
2017-10-14T09:55:21.107Z,64.80
2017-10-14T09:57:49.369Z,64.80
2017-10-14T10:00:19.647Z,65.10
2017-10-14T10:02:47.948Z,65.80
2017-10-14T10:05:16.219Z,63.90
2017-10-14T10:07:44.496Z,63.30
2017-10-14T10:10:12.758Z,63.10
2017-10-14T10:12:41.010Z,63.00
2017-10-14T10:15:09.766Z,60.60
2017-10-14T10:17:38.042Z,60.60
2017-10-14T10:20:06.337Z,59.80
2017-10-14T10:22:34.592Z,59.40
2017-10-14T10:25:02.906Z,59.20
2017-10-14T10:27:31.282Z,58.90
2017-10-14T10:29:59.967Z,61.70
2017-10-14T10:32:28.228Z,61.70
2017-10-14T10:34:56.917Z,63.00
2017-10-14T10:37:25.828Z,64.00
2017-10-14T10:39:54.509Z,63.00
2017-10-14T10:42:22.821Z,63.00
2017-10-14T10:44:51.087Z,62.10
2017-10-14T10:47:19.342Z,61.00
2017-10-14T10:49:48.196Z,60.30
2017-10-14T10:52:16.472Z,59.70
2017-10-14T10:54:44.946Z,59.20
2017-10-14T10:57:13.216Z,58.60
2017-10-14T10:59:41.474Z,58.30
2017-10-14T11:02:09.743Z,58.20
2017-10-14T11:04:39.005Z,58.30
2017-10-14T11:07:07.644Z,58.00
2017-10-14T11:09:35.926Z,58.00
2017-10-14T11:12:04.205Z,58.00
2017-10-14T11:14:32.609Z,58.00
2017-10-14T11:17:00.917Z,58.00
2017-10-14T11:19:29.235Z,58.30
2017-10-14T11:21:57.493Z,58.20
2017-10-14T11:24:25.741Z,58.80
2017-10-14T11:26:54.042Z,58.50
2017-10-14T11:29:22.298Z,58.80
2017-10-14T11:31:50.681Z,58.60
2017-10-14T11:34:18.958Z,58.50
2017-10-14T11:36:47.273Z,58.30
2017-10-14T11:39:16.555Z,57.90
2017-10-14T11:41:45.466Z,57.70
2017-10-14T11:44:13.761Z,57.60
2017-10-14T11:46:42.907Z,57.70
2017-10-14T11:49:11.170Z,58.90
2017-10-14T11:51:39.418Z,59.40
2017-10-14T11:54:07.737Z,60.00
2017-10-14T11:56:36.128Z,59.70
2017-10-14T11:59:04.484Z,60.10
2017-10-14T12:01:33.014Z,60.40
2017-10-14T12:04:01.920Z,60.00
2017-10-14T12:06:30.209Z,59.70
2017-10-14T12:08:58.482Z,59.50
2017-10-14T12:11:26.779Z,59.50
2017-10-14T12:13:55.036Z,59.40
2017-10-14T12:16:23.318Z,58.80
2017-10-14T12:18:51.598Z,58.60
2017-10-14T12:21:19.932Z,58.60
2017-10-14T12:23:48.244Z,58.30
2017-10-14T12:26:16.925Z,58.80
2017-10-14T12:28:45.696Z,58.50
2017-10-14T12:31:14.055Z,58.50
2017-10-14T12:33:42.550Z,59.10
2017-10-14T12:36:10.839Z,58.30
2017-10-14T12:38:39.088Z,58.80
2017-10-14T12:41:07.921Z,58.50
2017-10-14T12:43:36.278Z,57.60
2017-10-14T12:46:04.981Z,56.10
2017-10-14T12:48:33.242Z,56.10
2017-10-14T12:51:01.519Z,55.80
2017-10-14T12:53:31.204Z,55.40
2017-10-14T12:55:59.497Z,55.20
2017-10-14T12:58:27.858Z,55.40
2017-10-14T13:00:56.136Z,55.50
2017-10-14T13:03:24.468Z,55.20
2017-10-14T13:05:52.757Z,56.00
2017-10-14T13:08:21.017Z,55.80
2017-10-14T13:10:49.514Z,56.60
2017-10-14T13:13:17.792Z,56.10
2017-10-14T13:15:46.069Z,56.30
2017-10-14T13:18:14.426Z,56.40
2017-10-14T13:20:42.703Z,56.10
2017-10-14T13:23:11.188Z,56.00
2017-10-14T13:25:39.869Z,56.40
2017-10-14T13:28:08.129Z,56.30
2017-10-14T13:30:36.905Z,56.30
2017-10-14T13:33:05.633Z,56.00
2017-10-14T13:35:33.880Z,56.00
2017-10-14T13:38:02.551Z,56.40
2017-10-14T13:40:30.801Z,56.40
2017-10-14T13:42:59.085Z,57.30
2017-10-14T13:45:27.414Z,57.60
2017-10-14T13:47:55.673Z,57.60
2017-10-14T13:50:23.934Z,57.30
2017-10-14T13:52:52.201Z,57.20
2017-10-14T13:55:20.456Z,57.20
2017-10-14T13:57:48.756Z,57.20
2017-10-14T14:00:17.007Z,57.00
2017-10-14T14:02:45.259Z,56.70
2017-10-14T14:05:14.149Z,56.60
2017-10-14T14:07:42.412Z,56.70
2017-10-14T14:10:10.668Z,56.30
2017-10-14T14:12:38.968Z,55.80
2017-10-14T14:15:07.210Z,55.70
2017-10-14T14:17:35.504Z,55.20
2017-10-14T14:20:04.086Z,54.80
2017-10-14T14:22:32.730Z,54.30
2017-10-14T14:25:01.053Z,54.30
2017-10-14T14:27:29.338Z,54.60
2017-10-14T14:29:57.617Z,55.50
2017-10-14T14:32:25.948Z,56.60
2017-10-14T14:34:54.209Z,56.70
2017-10-14T14:37:22.823Z,57.60
2017-10-14T14:39:51.520Z,56.70
2017-10-14T14:42:19.787Z,56.70
2017-10-14T14:44:48.063Z,55.50
2017-10-14T14:47:16.342Z,55.20
2017-10-14T14:49:44.993Z,52.60
2017-10-14T14:52:13.265Z,52.60
2017-10-14T14:54:41.557Z,51.80
2017-10-14T14:57:10.301Z,50.90
2017-10-14T14:59:38.554Z,50.90
2017-10-14T15:02:06.883Z,50.50
2017-10-14T15:04:35.254Z,51.10
2017-10-14T15:07:03.516Z,50.90
2017-10-14T15:09:31.823Z,50.80
2017-10-14T15:12:00.155Z,51.10
2017-10-14T15:14:28.886Z,51.70
2017-10-14T15:16:57.138Z,52.10
2017-10-14T15:19:25.414Z,53.30
2017-10-14T15:21:53.697Z,54.60
2017-10-14T15:24:22.401Z,56.90
2017-10-14T15:26:50.689Z,56.90
2017-10-14T15:29:19.345Z,58.50
2017-10-14T15:31:47.623Z,58.60
2017-10-14T15:34:15.891Z,59.70
2017-10-14T15:36:44.733Z,60.00
2017-10-14T15:39:13.017Z,61.00
2017-10-14T15:41:41.268Z,61.30
2017-10-14T15:44:10.014Z,62.80
2017-10-14T15:46:38.265Z,62.80
2017-10-14T15:49:06.900Z,62.20
2017-10-14T15:51:35.173Z,63.10
2017-10-14T15:54:03.548Z,63.30
2017-10-14T15:56:32.597Z,64.00
2017-10-14T15:59:00.857Z,64.00
2017-10-14T16:01:29.505Z,64.80
2017-10-14T16:03:57.797Z,64.80
2017-10-14T16:06:26.120Z,64.90
2017-10-14T16:08:54.678Z,65.50
2017-10-14T16:11:23.330Z,68.00
2017-10-14T16:13:52.415Z,68.00
2017-10-14T16:16:20.666Z,69.20
2017-10-14T16:18:48.953Z,69.40
2017-10-14T16:21:17.457Z,67.60
2017-10-14T16:23:45.721Z,67.10
2017-10-14T16:26:13.999Z,66.70
2017-10-14T16:28:42.274Z,66.00
2017-10-14T16:31:10.563Z,64.80
2017-10-14T16:33:38.801Z,65.10
2017-10-14T16:36:07.106Z,63.70
2017-10-14T16:38:35.362Z,63.70
2017-10-14T16:41:03.625Z,64.20
2017-10-14T16:43:32.347Z,62.80
2017-10-14T16:46:00.638Z,64.20
2017-10-14T16:48:28.917Z,67.10
2017-10-14T16:50:57.252Z,66.70
2017-10-14T16:53:25.518Z,66.20
2017-10-14T16:55:53.841Z,66.70
2017-10-14T16:58:22.422Z,67.30
2017-10-14T17:00:50.683Z,67.40
2017-10-14T17:03:18.960Z,68.20
2017-10-14T17:05:47.252Z,68.20
2017-10-14T17:08:15.503Z,68.00
2017-10-14T17:10:43.858Z,68.00
2017-10-14T17:13:12.098Z,68.20
2017-10-14T17:15:40.748Z,68.70
2017-10-14T17:18:09.067Z,68.70
2017-10-14T17:20:37.729Z,70.10
2017-10-14T17:23:05.981Z,70.10
2017-10-14T17:25:34.307Z,70.30
2017-10-14T17:28:03.337Z,71.00
2017-10-14T17:30:31.592Z,73.00
2017-10-14T17:32:59.911Z,73.70
2017-10-14T17:35:28.136Z,74.30
2017-10-14T17:37:56.425Z,73.90
2017-10-14T17:40:24.675Z,74.60
2017-10-14T17:42:53.320Z,74.50
2017-10-14T17:45:21.609Z,74.50
2017-10-14T17:47:49.854Z,73.90
2017-10-14T17:50:18.114Z,74.60
2017-10-14T17:52:46.491Z,75.00
2017-10-14T17:55:15.294Z,74.80
2017-10-14T17:57:43.814Z,74.60
2017-10-14T18:00:12.398Z,74.60
2017-10-14T18:02:40.665Z,75.00
2017-10-14T18:05:09.258Z,74.80
2017-10-14T18:07:37.515Z,75.40
2017-10-14T18:10:05.808Z,76.40
2017-10-14T18:12:34.089Z,76.60
2017-10-14T18:15:02.347Z,76.10
2017-10-14T18:17:30.610Z,76.40
2017-10-14T18:19:59.114Z,76.80
2017-10-14T18:22:27.392Z,76.80
2017-10-14T18:24:55.651Z,76.40
2017-10-14T18:27:23.900Z,76.10
2017-10-14T18:29:52.169Z,75.90
2017-10-14T18:32:20.474Z,75.40
2017-10-14T18:34:48.757Z,75.00
2017-10-14T18:37:17.161Z,75.40
2017-10-14T18:39:45.412Z,75.00
2017-10-14T18:42:13.690Z,75.40
2017-10-14T18:44:41.982Z,75.70
2017-10-14T18:47:10.653Z,76.30
2017-10-14T18:49:38.895Z,76.30
2017-10-14T18:52:07.209Z,76.10
2017-10-14T18:54:35.450Z,76.30
2017-10-14T18:57:03.848Z,76.80
2017-10-14T18:59:32.324Z,76.80
2017-10-14T19:02:00.595Z,77.10
2017-10-14T19:04:28.853Z,77.10
2017-10-14T19:06:57.480Z,77.00
2017-10-14T19:09:25.855Z,77.00
2017-10-14T19:11:54.104Z,77.00
2017-10-14T19:14:22.378Z,77.00
2017-10-14T19:16:50.642Z,75.90
2017-10-14T19:19:19.051Z,76.30
2017-10-14T19:21:47.341Z,76.30
2017-10-14T19:24:15.936Z,75.70
2017-10-14T19:26:44.200Z,75.70
2017-10-14T19:29:12.515Z,75.70
2017-10-14T19:31:40.921Z,76.10
2017-10-14T19:34:09.181Z,76.30
2017-10-14T19:36:37.715Z,75.90
2017-10-14T19:39:06.298Z,76.40
2017-10-14T19:41:34.768Z,77.10
2017-10-14T19:44:03.029Z,77.00
2017-10-14T19:46:31.672Z,77.00
2017-10-14T19:49:00.898Z,78.00
2017-10-14T19:51:29.186Z,78.00
2017-10-14T19:53:57.448Z,78.80
2017-10-14T19:56:28.112Z,78.90
2017-10-14T19:58:56.816Z,78.90
2017-10-14T20:01:25.093Z,78.20
2017-10-14T20:03:53.355Z,78.60
2017-10-14T20:06:21.650Z,77.30
2017-10-14T20:08:49.901Z,77.00
2017-10-14T20:11:18.185Z,76.60
2017-10-14T20:13:46.501Z,76.30
2017-10-14T20:16:14.749Z,76.60
2017-10-14T20:18:43.007Z,76.30
2017-10-14T20:21:11.289Z,76.10
2017-10-14T20:23:39.537Z,76.10
2017-10-14T20:26:07.800Z,76.40
2017-10-14T20:28:36.645Z,76.80
2017-10-14T20:31:05.462Z,76.40
2017-10-14T20:33:33.780Z,77.00
2017-10-14T20:36:02.169Z,76.80
2017-10-14T20:38:30.436Z,77.00
2017-10-14T20:40:58.729Z,78.80
2017-10-14T20:43:27.435Z,83.10
2017-10-14T20:45:55.712Z,83.10
2017-10-14T20:48:24.371Z,84.90
2017-10-14T20:50:52.636Z,84.90
2017-10-14T20:53:20.896Z,84.70
2017-10-14T20:55:49.403Z,84.70
2017-10-14T20:58:18.391Z,84.00
2017-10-14T21:00:46.668Z,82.70
2017-10-14T21:03:15.188Z,81.50
2017-10-14T21:05:43.430Z,80.00
2017-10-14T21:08:11.685Z,76.80
2017-10-14T21:10:39.957Z,72.50
2017-10-14T21:13:08.217Z,70.00
2017-10-14T21:15:37.233Z,68.00
2017-10-14T21:18:05.736Z,67.30
2017-10-14T21:20:33.986Z,67.10
2017-10-14T21:23:02.265Z,67.40
2017-10-14T21:25:30.553Z,67.80
2017-10-14T21:27:58.823Z,68.00
2017-10-14T21:30:27.160Z,68.30
2017-10-14T21:32:55.440Z,68.90
2017-10-14T21:35:23.696Z,67.80
2017-10-14T21:37:52.354Z,70.00
2017-10-14T21:40:20.622Z,70.00
2017-10-14T21:42:49.100Z,70.30
2017-10-14T21:45:17.370Z,70.00
2017-10-14T21:47:46.273Z,70.50
2017-10-14T21:50:14.564Z,72.30
2017-10-14T21:52:42.835Z,72.10
2017-10-14T21:55:11.116Z,72.50
2017-10-14T21:57:39.394Z,73.60
2017-10-14T22:00:08.143Z,77.70
2017-10-14T22:02:36.888Z,80.90
2017-10-14T22:05:05.309Z,83.60
2017-10-14T22:07:33.569Z,85.10
2017-10-14T22:10:01.877Z,84.00
2017-10-14T22:12:30.162Z,84.00
2017-10-14T22:14:59.343Z,78.60
2017-10-14T22:17:27.633Z,78.60
2017-10-14T22:19:56.327Z,73.70
2017-10-14T22:22:24.865Z,73.70
2017-10-14T22:24:53.166Z,71.90
2017-10-14T22:27:21.636Z,71.20
2017-10-14T22:29:49.921Z,71.90
2017-10-14T22:32:18.227Z,72.80
2017-10-14T22:34:46.715Z,74.10
2017-10-14T22:37:14.986Z,77.50
2017-10-14T22:39:43.593Z,80.90
2017-10-14T22:42:11.869Z,83.60
2017-10-14T22:44:40.141Z,82.90
2017-10-14T22:47:08.829Z,80.70
2017-10-14T22:49:37.134Z,80.70
2017-10-14T22:52:05.432Z,80.20
2017-10-14T22:54:33.757Z,79.30
2017-10-14T22:57:02.321Z,78.20
2017-10-14T22:59:30.647Z,78.60
2017-10-14T23:01:58.962Z,78.20
2017-10-14T23:04:27.675Z,77.50
2017-10-14T23:06:56.343Z,76.60
2017-10-14T23:09:24.653Z,76.60
2017-10-14T23:11:53.305Z,75.00
2017-10-14T23:14:22.534Z,75.00
2017-10-14T23:16:50.812Z,74.60
2017-10-14T23:19:19.312Z,73.40
2017-10-14T23:21:47.779Z,72.50
2017-10-14T23:24:16.092Z,72.30
2017-10-14T23:26:44.365Z,72.30
2017-10-14T23:29:12.624Z,71.90
2017-10-14T23:31:40.909Z,72.30
2017-10-14T23:34:09.183Z,72.50
2017-10-14T23:36:37.444Z,72.50
2017-10-14T23:39:05.779Z,72.70
2017-10-14T23:41:34.043Z,73.00
2017-10-14T23:44:02.756Z,73.00
2017-10-14T23:46:31.236Z,73.20
2017-10-14T23:48:59.905Z,73.00
2017-10-14T23:51:29.233Z,73.00
2017-10-14T23:53:57.478Z,73.20
2017-10-14T23:56:26.033Z,73.20
2017-10-14T23:58:54.304Z,73.00
